Aviation Digital Data Service (ADDS)

Output produced by METARs form (1923 UTC 18 June 2019)
found at http://www.aviationweather.gov/metar/data/
 
VDSR 181900Z 19001KT 9000 SCT017 SCT040 26/25 Q1006
TAF VDSR 181700Z 1818/1912 25007KT 9999 SCT017 SCT040
       
VDSV 181900Z 27006KT 9000 SCT015 FEW017CB BKN040 27/26 Q1009CB:SW/NE
TAF VDSV 181700Z 1818/1912 27009KT 9999 SCT017 SCT040 
     TEMPO 1819/1823 5000 TSRA SCT015 FEW017CB SCT040